Time;durP1;ratioP1;P1;durP2;ratioP2;P2;SDS_P1;SDS_P2;PMS_P1;PMS_P2;Temp;Humidity;BMP_temperature;BMP_pressure;BME280_temperature;BME280_humidity;BME280_pressure;Samples;Min_cycle;Max_cycle;Signal;HPM_P1;HPM_P2
2022/01/18 10:12:39;;;;;;;23.03;21.17;;;14.30;99.90;;;;;;5066857;27;20591;-72
2022/01/18 10:15:07;;;;;;;22.57;20.53;;;15.40;96.80;;;;;;5066562;28;20930;-72
2022/01/18 10:17:36;;;;;;;21.53;19.83;;;13.70;98.80;;;;;;5066315;28;20443;-72
2022/01/18 10:20:05;;;;;;;22.20;20.27;;;14.00;99.70;;;;;;5066178;28;20455;-72
2022/01/18 10:22:40;;;;;;;21.67;19.90;;;14.20;99.90;;;;;;5066243;28;20446;-72
2022/01/18 10:25:14;;;;;;;21.33;19.47;;;14.70;99.10;;;;;;5066551;28;20546;-72
2022/01/18 10:27:42;;;;;;;21.80;20.00;;;15.70;97.70;;;;;;5066126;28;20438;-72
2022/01/18 10:30:16;;;;;;;21.03;19.60;;;15.90;95.70;;;;;;5066322;28;20454;-72
2022/01/18 10:32:43;;;;;;;21.77;20.17;;;16.70;96.30;;;;;;5066010;28;20452;-73
2022/01/18 10:35:10;;;;;;;22.73;21.03;;;17.60;92.70;;;;;;5066289;28;20451;-71
2022/01/18 10:37:42;;;;;;;23.97;22.10;;;17.40;92.80;;;;;;5066462;28;20989;-72
2022/01/18 10:40:14;;;;;;;23.27;21.37;;;18.00;92.20;;;;;;5066469;28;20815;-71
2022/01/18 10:42:46;;;;;;;22.47;20.97;;;18.50;90.80;;;;;;5066074;28;20479;-72
2022/01/18 10:45:22;;;;;;;22.73;21.13;;;18.50;88.80;;;;;;5066033;28;20870;-72
2022/01/18 10:47:52;;;;;;;21.00;19.50;;;18.90;88.80;;;;;;5065778;28;20943;-72
2022/01/18 10:50:20;;;;;;;21.50;20.00;;;18.50;86.20;;;;;;5065721;28;20525;-71
2022/01/18 10:52:47;;;;;;;21.00;19.40;;;17.80;88.10;;;;;;5065946;28;20542;-74
2022/01/18 10:55:19;;;;;;;22.97;21.30;;;17.70;90.70;;;;;;5065581;28;20478;-73
2022/01/18 10:57:48;;;;;;;21.27;19.60;;;17.10;89.30;;;;;;5065499;28;20528;-72
2022/01/18 11:00:18;;;;;;;22.10;20.50;;;17.30;89.00;;;;;;5065638;28;20455;-72
2022/01/18 11:02:50;;;;;;;20.20;18.70;;;16.50;90.90;;;;;;5065181;28;20535;-72
2022/01/18 11:05:19;;;;;;;23.10;20.80;;;15.80;91.50;;;;;;5065201;28;20502;-72
2022/01/18 11:07:47;;;;;;;20.53;18.97;;;14.20;93.40;;;;;;5065246;28;20444;-72
2022/01/18 11:10:16;;;;;;;20.50;18.80;;;13.60;95.20;;;;;;5065109;28;20443;-71
2022/01/18 11:12:52;;;;;;;19.23;17.63;;;13.20;96.20;;;;;;5056925;28;21001;-73
2022/01/18 11:15:21;;;;;;;18.93;17.53;;;12.10;98.00;;;;;;5051984;28;20969;-73
2022/01/18 11:17:57;;;;;;;19.40;17.60;;;11.40;99.70;;;;;;5052088;28;20461;-73
2022/01/18 11:20:24;;;;;;;18.83;17.30;;;10.50;99.90;;;;;;5052245;28;20510;-73
2022/01/18 11:22:52;;;;;;;18.57;17.17;;;10.10;99.90;;;;;;5052415;28;20476;-74
2022/01/18 11:25:20;;;;;;;19.97;18.33;;;9.80;99.90;;;;;;5052086;28;20446;-73
2022/01/18 11:27:51;;;;;;;18.43;17.03;;;9.70;99.90;;;;;;5052032;28;20460;-73
2022/01/18 11:30:20;;;;;;;17.10;15.80;;;9.70;99.90;;;;;;5051820;28;20496;-73
2022/01/18 11:32:48;;;;;;;17.27;15.90;;;9.50;99.90;;;;;;5051686;28;20448;-73
2022/01/18 11:35:19;;;;;;;17.00;15.50;;;9.50;99.90;;;;;;5051486;28;20458;-74
2022/01/18 11:37:58;;;;;;;16.33;15.30;;;10.60;99.90;;;;;;5051541;28;20803;-73
2022/01/18 11:40:26;;;;;;;16.37;15.00;;;10.90;99.90;;;;;;5051790;28;20553;-74
2022/01/18 11:42:56;;;;;;;17.10;15.37;;;12.00;99.90;;;;;;5051950;28;20501;-73
2022/01/18 11:45:39;;;;;;;17.00;15.83;;;13.40;99.30;;;;;;5051775;28;20440;-74
2022/01/18 11:48:12;;;;;;;17.43;16.23;;;14.30;96.30;;;;;;5051672;28;20456;-74
2022/01/18 11:50:44;;;;;;;15.80;14.80;;;13.80;97.20;;;;;;5051555;28;21075;-72
2022/01/18 11:53:22;;;;;;;17.13;15.77;;;15.00;95.10;;;;;;5051235;28;20456;-74
2022/01/18 11:55:49;;;;;;;15.77;14.97;;;14.80;93.50;;;;;;5051565;28;20448;-74
2022/01/18 11:58:18;;;;;;;16.07;15.00;;;14.70;93.80;;;;;;5051345;28;20452;-72
2022/01/18 12:00:51;;;;;;;16.77;15.47;;;15.60;93.50;;;;;;5050870;28;20448;-74
2022/01/18 12:03:21;;;;;;;19.93;18.70;;;16.10;90.80;;;;;;5051200;28;20906;-75
2022/01/18 12:05:49;;;;;;;17.80;16.57;;;15.80;91.20;;;;;;5051229;28;20448;-74
2022/01/18 12:08:33;;;;;;;18.57;17.07;;;16.10;92.50;;;;;;5051378;28;20486;-74
2022/01/18 12:11:01;;;;;;;17.20;15.90;;;15.20;92.30;;;;;;5051048;28;20483;-74
2022/01/18 12:13:34;;;;;;;18.53;17.07;;;14.20;93.60;;;;;;5051032;28;20484;-74
2022/01/18 12:16:03;;;;;;;18.60;16.90;;;12.40;96.50;;;;;;5050861;28;20479;-73
2022/01/18 12:18:34;;;;;;;16.90;15.80;;;11.20;99.70;;;;;;5050859;28;20459;-73
2022/01/18 12:21:02;;;;;;;17.90;16.50;;;10.50;99.90;;;;;;5051013;28;20452;-73
2022/01/18 12:23:41;;;;;;;17.70;16.20;;;10.60;99.90;;;;;;5050109;28;20613;-73
2022/01/18 12:26:16;;;;;;;17.33;16.23;;;10.90;99.90;;;;;;5051149;28;20784;-74
2022/01/18 12:29:08;;;;;;;16.73;15.63;;;10.90;99.90;;;;;;5050671;28;20483;-74
2022/01/18 12:34:40;;;;;;;16.00;14.90;;;12.90;98.70;;;;;;5050766;28;20426;-74
2022/01/18 12:37:35;;;;;;;18.30;17.20;;;12.20;98.10;;;;;;5050927;28;20448;-74
2022/01/18 12:40:07;;;;;;;15.57;14.57;;;10.50;99.90;;;;;;5050557;28;20460;-74
2022/01/18 12:45:23;;;;;;;14.00;13.07;;;8.90;99.90;;;;;;5050607;28;20438;-74
2022/01/18 12:47:53;;;;;;;14.43;13.53;;;8.50;99.90;;;;;;5050590;28;20443;-74
2022/01/18 12:50:23;;;;;;;12.83;12.20;;;8.30;99.90;;;;;;5050880;28;20520;-73
2022/01/18 12:52:51;;;;;;;12.97;12.27;;;8.20;99.90;;;;;;5050218;28;20857;-73
2022/01/18 12:55:26;;;;;;;13.03;12.43;;;8.00;99.90;;;;;;5050099;28;20454;-73
2022/01/18 12:57:59;;;;;;;14.07;13.17;;;7.90;99.90;;;;;;5050596;28;20505;-73
2022/01/18 13:00:27;;;;;;;13.43;12.60;;;7.80;99.90;;;;;;5050202;28;20538;-73
2022/01/18 13:02:58;;;;;;;12.07;11.27;;;7.70;99.90;;;;;;5050243;28;20769;-73
2022/01/18 13:05:34;;;;;;;13.67;12.97;;;7.60;99.90;;;;;;5050245;28;20507;-74
2022/01/18 13:08:01;;;;;;;13.83;13.03;;;7.60;99.90;;;;;;5050082;28;20534;-74
2022/01/18 13:10:35;;;;;;;64.43;22.03;;;7.50;99.90;;;;;;5049726;28;20455;-75
2022/01/18 13:13:03;;;;;;;13.00;12.30;;;7.30;99.90;;;;;;5049880;28;20498;-72
2022/01/18 13:26:54;;;;;;;12.60;12.00;;;6.70;99.90;;;;;;5049899;28;20458;-74
2022/01/18 13:29:24;;;;;;;12.70;11.80;;;6.80;99.90;;;;;;5049979;28;20507;-75
2022/01/18 13:32:04;;;;;;;12.70;12.00;;;6.90;99.90;;;;;;5049754;28;20494;-74
2022/01/18 13:34:32;;;;;;;12.83;12.13;;;7.00;99.90;;;;;;5049198;28;20459;-74
2022/01/18 13:37:03;;;;;;;13.07;12.27;;;7.00;99.90;;;;;;5049260;28;20508;-74
2022/01/18 13:39:32;;;;;;;11.00;10.50;;;7.10;99.90;;;;;;5049217;28;20460;-75
2022/01/18 13:42:00;;;;;;;12.17;11.43;;;7.10;99.90;;;;;;5049488;28;20463;-74
2022/01/18 13:44:27;;;;;;;12.23;11.63;;;7.20;99.90;;;;;;5049364;28;20949;-74
2022/01/18 13:46:54;;;;;;;11.63;11.00;;;7.20;99.90;;;;;;5049807;28;20478;-74
2022/01/18 13:49:25;;;;;;;11.80;11.20;;;7.40;99.90;;;;;;5049528;28;20466;-74
2022/01/18 13:52:02;;;;;;;11.90;11.30;;;7.40;99.90;;;;;;5049718;28;20853;-74
2022/01/18 13:54:43;;;;;;;12.43;11.83;;;7.40;99.90;;;;;;5049268;28;20478;-73
2022/01/18 13:57:10;;;;;;;11.90;11.40;;;7.30;99.90;;;;;;5049261;28;20455;-71
2022/01/18 13:59:37;;;;;;;11.77;11.07;;;7.40;99.90;;;;;;5049626;28;20740;-74
2022/01/18 14:02:11;;;;;;;12.97;12.07;;;7.20;99.90;;;;;;5049388;28;20440;-74
2022/01/18 14:04:39;;;;;;;12.10;11.50;;;7.20;99.90;;;;;;5049454;28;20455;-75
2022/01/18 14:07:06;;;;;;;13.83;13.03;;;7.20;99.90;;;;;;5049237;28;20966;-73
2022/01/18 14:09:33;;;;;;;12.50;11.90;;;7.20;99.90;;;;;;5049258;28;20462;-73
2022/01/18 14:12:00;;;;;;;12.27;11.67;;;7.30;99.90;;;;;;5048864;28;20503;-74
2022/01/18 14:14:29;;;;;;;13.37;12.47;;;7.30;99.90;;;;;;5049068;28;20805;-74
2022/01/18 14:16:57;;;;;;;12.60;11.90;;;7.30;99.90;;;;;;5049047;28;20440;-74
2022/01/18 14:19:29;;;;;;;11.33;10.70;;;7.40;99.90;;;;;;5049115;28;20456;-74
2022/01/18 14:21:59;;;;;;;13.40;12.50;;;7.40;99.90;;;;;;5049326;28;20446;-74
2022/01/18 14:24:27;;;;;;;11.80;11.10;;;7.40;99.90;;;;;;5049037;28;20450;-74
2022/01/18 14:27:03;;;;;;;10.97;10.37;;;7.40;99.90;;;;;;5049327;28;20852;-73
2022/01/18 14:29:45;;;;;;;11.10;10.50;;;7.40;99.90;;;;;;5048898;28;21194;-73
2022/01/18 14:32:14;;;;;;;10.23;9.80;;;7.40;99.90;;;;;;5048808;28;20819;-74
2022/01/18 14:34:42;;;;;;;11.17;10.57;;;7.40;99.90;;;;;;5049175;28;20486;-74
2022/01/18 14:37:12;;;;;;;11.43;10.83;;;7.20;99.90;;;;;;5049069;28;20455;-74
2022/01/18 14:39:52;;;;;;;12.23;11.20;;;7.20;99.90;;;;;;5049172;28;20453;-73
2022/01/18 14:42:19;;;;;;;12.10;11.30;;;7.10;99.90;;;;;;5048951;28;20853;-74
2022/01/18 14:45:01;;;;;;;11.87;11.30;;;7.00;99.90;;;;;;5048639;28;20792;-74
2022/01/18 14:47:28;;;;;;;12.47;11.77;;;6.90;99.90;;;;;;5049916;28;20461;-74
2022/01/18 14:49:57;;;;;;;13.13;11.83;;;6.80;99.90;;;;;;5052640;28;20443;-73
2022/01/18 14:52:29;;;;;;;12.10;11.40;;;6.80;99.90;;;;;;5052535;28;20485;-73
2022/01/18 14:54:56;;;;;;;11.37;10.87;;;6.70;99.90;;;;;;5052662;28;20605;-74
2022/01/18 14:57:23;;;;;;;12.27;11.67;;;6.70;99.90;;;;;;5052807;28;20443;-73
2022/01/18 14:59:51;;;;;;;11.50;11.00;;;6.70;99.90;;;;;;5052460;28;20449;-73
2022/01/18 15:02:18;;;;;;;12.00;11.00;;;6.60;99.90;;;;;;5052311;28;21046;-73
2022/01/18 15:04:45;;;;;;;11.87;11.07;;;6.50;99.90;;;;;;5052205;28;20454;-74
2022/01/18 15:07:12;;;;;;;11.93;11.17;;;6.50;99.90;;;;;;5052199;28;20505;-74
2022/01/18 15:09:40;;;;;;;11.70;11.10;;;6.60;99.90;;;;;;5052307;28;20448;-74
2022/01/18 15:12:08;;;;;;;11.37;10.80;;;6.60;99.90;;;;;;5052365;28;20489;-73
2022/01/18 15:14:35;;;;;;;11.17;10.73;;;6.70;99.90;;;;;;5052280;28;21016;-74
2022/01/18 15:17:03;;;;;;;12.00;11.50;;;6.70;99.90;;;;;;5052087;28;20512;-74
2022/01/18 15:19:30;;;;;;;11.50;11.00;;;6.80;99.90;;;;;;5051983;28;20449;-73
2022/01/18 15:21:56;;;;;;;11.93;11.40;;;6.80;99.90;;;;;;5051882;28;20455;-74
2022/01/18 15:24:23;;;;;;;11.13;10.63;;;6.90;99.90;;;;;;5052220;28;20456;-73
2022/01/18 15:26:52;;;;;;;10.77;10.37;;;6.80;99.90;;;;;;5051810;28;20536;-73
2022/01/18 15:29:19;;;;;;;10.67;10.27;;;6.70;99.90;;;;;;5051887;28;20449;-73
2022/01/18 15:31:45;;;;;;;11.30;10.60;;;6.70;99.90;;;;;;5051630;28;20509;-73
2022/01/18 15:34:12;;;;;;;11.13;10.67;;;6.70;99.90;;;;;;5051419;28;20852;-73
2022/01/18 15:36:39;;;;;;;11.73;11.23;;;6.60;99.90;;;;;;5051865;28;20477;-72
2022/01/18 15:39:06;;;;;;;11.53;11.03;;;6.60;99.90;;;;;;5051782;28;20452;-73
2022/01/18 15:41:32;;;;;;;10.33;9.93;;;6.60;99.90;;;;;;5051569;28;20942;-72
2022/01/18 15:44:00;;;;;;;11.57;11.07;;;6.60;99.90;;;;;;5051766;28;20458;-72
2022/01/18 15:46:27;;;;;;;10.97;10.27;;;6.60;99.90;;;;;;5051561;28;20450;-72
2022/01/18 15:48:54;;;;;;;10.83;10.23;;;6.50;99.90;;;;;;5051636;28;20535;-73
2022/01/18 15:51:21;;;;;;;10.87;10.07;;;6.50;99.90;;;;;;5051472;28;20458;-72
2022/01/18 15:53:48;;;;;;;11.63;10.47;;;6.60;99.90;;;;;;5051333;28;20489;-73
2022/01/18 15:56:15;;;;;;;11.10;10.50;;;6.60;99.90;;;;;;5051311;28;20851;-73
2022/01/18 15:58:42;;;;;;;11.67;10.53;;;6.60;99.90;;;;;;5050974;28;20542;-72
2022/01/18 16:01:10;;;;;;;10.03;9.57;;;6.60;99.90;;;;;;5051367;28;20452;-73
2022/01/18 16:03:37;;;;;;;10.77;10.27;;;6.70;99.90;;;;;;5051255;28;20467;-73
2022/01/18 16:06:05;;;;;;;10.03;9.53;;;6.70;99.90;;;;;;5051287;28;20523;-74
2022/01/18 16:08:33;;;;;;;10.67;9.67;;;6.80;99.90;;;;;;5051073;28;20452;-73
2022/01/18 16:11:00;;;;;;;10.10;9.60;;;6.80;99.90;;;;;;5050883;28;20893;-73
2022/01/18 16:13:27;;;;;;;10.43;9.60;;;6.80;99.90;;;;;;5050895;28;20488;-73
2022/01/18 16:15:54;;;;;;;10.70;9.90;;;6.80;99.90;;;;;;5051068;28;20465;-73
2022/01/18 16:18:22;;;;;;;256.37;56.37;;;6.80;99.90;;;;;;5050994;28;20513;-73
2022/01/18 16:20:49;;;;;;;10.90;10.50;;;6.80;99.90;;;;;;5051041;28;20456;-74
2022/01/18 16:23:16;;;;;;;9.73;9.33;;;6.80;99.90;;;;;;5050746;28;20553;-74
2022/01/18 16:25:45;;;;;;;1999.90;999.90;;;6.80;99.90;;;;;;5050735;28;20449;-72
2022/01/18 16:28:12;;;;;;;10.17;9.37;;;6.90;99.90;;;;;;5050718;28;20460;-73
2022/01/18 16:30:39;;;;;;;9.43;9.03;;;6.90;99.90;;;;;;5050944;28;20452;-73
2022/01/18 16:33:05;;;;;;;9.23;8.73;;;6.90;99.90;;;;;;5050760;28;20475;-74
2022/01/18 16:35:35;;;;;;;10.50;10.03;;;6.90;99.90;;;;;;5050466;28;20448;-74
2022/01/18 16:38:03;;;;;;;12.50;11.80;;;6.90;99.90;;;;;;5050396;28;20837;-74
2022/01/18 16:40:30;;;;;;;10.00;9.47;;;6.80;99.90;;;;;;5050368;28;20494;-73
2022/01/18 16:42:57;;;;;;;9.90;9.47;;;6.80;99.90;;;;;;5050334;28;20453;-73
2022/01/18 16:45:51;;;;;;;10.03;9.50;;;6.80;99.90;;;;;;5050700;28;20455;-73
2022/01/18 16:48:18;;;;;;;10.03;9.63;;;6.80;99.90;;;;;;5050120;28;20456;-73
2022/01/18 16:50:46;;;;;;;11.17;10.47;;;6.80;99.90;;;;;;5049954;28;20453;-73
2022/01/18 16:53:13;;;;;;;9.87;9.47;;;6.70;99.90;;;;;;5049991;28;20486;-72
2022/01/18 16:55:40;;;;;;;10.23;9.83;;;6.70;99.90;;;;;;5050145;28;20530;-73
2022/01/18 16:58:07;;;;;;;10.13;9.73;;;6.70;99.90;;;;;;5050346;28;20463;-74
2022/01/18 17:00:34;;;;;;;10.40;10.00;;;6.60;99.90;;;;;;5050061;28;20453;-73
2022/01/18 17:03:01;;;;;;;10.53;10.10;;;6.50;99.90;;;;;;5049802;28;20530;-73
2022/01/18 17:05:28;;;;;;;10.17;9.77;;;6.50;99.90;;;;;;5049913;28;20457;-72
2022/01/18 17:07:56;;;;;;;11.07;10.57;;;6.50;99.90;;;;;;5050161;28;20528;-72
2022/01/18 17:10:22;;;;;;;10.27;9.60;;;6.50;99.90;;;;;;5049461;28;20450;-73
2022/01/18 17:12:49;;;;;;;10.57;10.07;;;6.50;99.90;;;;;;5049918;28;20480;-73
2022/01/18 17:15:16;;;;;;;10.60;10.20;;;6.40;99.90;;;;;;5049684;28;20530;-73
2022/01/18 17:17:43;;;;;;;10.67;10.17;;;6.50;99.90;;;;;;5049523;28;20453;-72
2022/01/18 17:20:12;;;;;;;10.43;9.93;;;6.50;99.90;;;;;;5049806;28;20458;-73
2022/01/18 17:22:39;;;;;;;10.40;9.90;;;6.50;99.90;;;;;;5050017;28;20955;-73
2022/01/18 17:25:08;;;;;;;10.53;10.13;;;6.40;99.90;;;;;;5049740;28;20448;-73
2022/01/18 17:27:35;;;;;;;11.23;10.70;;;6.40;99.90;;;;;;5049598;28;20935;-72
2022/01/18 17:30:03;;;;;;;10.90;10.50;;;6.40;99.90;;;;;;5049524;28;20481;-73
2022/01/18 17:32:29;;;;;;;10.10;9.50;;;6.30;99.90;;;;;;5049284;28;20480;-72
2022/01/18 17:34:56;;;;;;;11.30;10.80;;;6.40;99.90;;;;;;5049363;28;20457;-73
2022/01/18 17:37:23;;;;;;;11.07;10.47;;;6.40;99.90;;;;;;5049652;28;20515;-72
2022/01/18 17:39:50;;;;;;;10.63;10.13;;;6.40;99.90;;;;;;5049455;28;20505;-72
2022/01/18 17:42:18;;;;;;;10.13;9.63;;;6.40;99.90;;;;;;5049107;28;21019;-73
2022/01/18 17:44:44;;;;;;;11.10;10.60;;;6.40;99.90;;;;;;5049412;28;20458;-72
2022/01/18 17:47:11;;;;;;;10.40;10.00;;;6.40;99.90;;;;;;5049570;28;20780;-72
2022/01/18 17:49:38;;;;;;;9.37;9.07;;;6.40;99.90;;;;;;5049684;28;20867;-72
2022/01/18 17:52:05;;;;;;;10.67;10.13;;;6.50;99.90;;;;;;5049623;28;20494;-72
2022/01/18 17:54:32;;;;;;;10.30;9.83;;;6.50;99.90;;;;;;5049173;28;20542;-73
2022/01/18 17:56:58;;;;;;;11.00;10.30;;;6.50;99.90;;;;;;5049372;28;20492;-73
2022/01/18 17:59:27;;;;;;;10.70;10.00;;;6.40;99.90;;;;;;5049386;28;20468;-74
